Time;durP1;ratioP1;P1;durP2;ratioP2;P2;SDS_P1;SDS_P2;PMS_P1;PMS_P2;Temp;Humidity;BMP_temperature;BMP_pressure;BME280_temperature;BME280_humidity;BME280_pressure;Samples;Min_cycle;Max_cycle;Signal;HPM_P1;HPM_P2
2022/11/30 00:02:05;;;;;;;64.28;24.40;;;7.70;99.90;;;;;;5000007;28;20041;-74
2022/11/30 00:04:31;;;;;;;63.20;25.08;;;7.70;99.90;;;;;;4999503;28;20052;-73
2022/11/30 00:06:57;;;;;;;56.47;24.20;;;7.60;99.90;;;;;;4999990;28;20049;-73
2022/11/30 00:09:23;;;;;;;54.65;22.95;;;7.60;99.90;;;;;;5031070;28;20049;-74
2022/11/30 00:11:49;;;;;;;56.75;23.83;;;7.60;99.90;;;;;;5032523;28;20132;-74
2022/11/30 00:14:15;;;;;;;59.30;24.63;;;7.60;99.90;;;;;;5016068;28;20158;-73
2022/11/30 00:16:41;;;;;;;58.10;24.33;;;7.60;99.90;;;;;;4999520;28;20072;-75
2022/11/30 00:19:06;;;;;;;50.17;21.98;;;7.60;99.90;;;;;;5015958;28;20134;-74
2022/11/30 00:21:32;;;;;;;55.78;23.45;;;7.60;99.90;;;;;;5015970;28;20483;-74
2022/11/30 00:23:58;;;;;;;55.67;23.00;;;7.50;99.90;;;;;;5032195;28;20417;-73
2022/11/30 00:26:24;;;;;;;59.63;23.10;;;7.50;99.90;;;;;;5015905;28;20386;-73
2022/11/30 00:28:50;;;;;;;57.38;23.08;;;7.50;99.90;;;;;;4999031;28;20360;-74
2022/11/30 00:31:17;;;;;;;56.22;23.40;;;7.50;99.90;;;;;;5032544;28;20226;-74
2022/11/30 00:33:43;;;;;;;57.38;24.00;;;7.50;99.90;;;;;;5015594;28;20060;-74
2022/11/30 00:36:15;;;;;;;56.55;23.50;;;7.50;99.90;;;;;;5032097;28;20466;-74
2022/11/30 00:38:41;;;;;;;55.72;23.95;;;7.50;99.90;;;;;;5032186;28;20049;-74
2022/11/30 00:41:07;;;;;;;56.92;23.48;;;7.50;99.90;;;;;;5014867;28;20052;-73
2022/11/30 00:43:33;;;;;;;62.38;24.95;;;7.50;99.90;;;;;;5032134;28;20765;-73
2022/11/30 00:45:59;;;;;;;62.67;23.88;;;7.50;99.90;;;;;;5031253;28;20049;-75
2022/11/30 00:48:25;;;;;;;61.75;24.35;;;7.50;99.90;;;;;;5015677;28;20042;-76
2022/11/30 00:50:51;;;;;;;62.25;24.90;;;7.50;99.90;;;;;;5031744;28;20099;-75
2022/11/30 00:53:19;;;;;;;69.65;26.00;;;7.40;99.90;;;;;;5015037;28;20113;-75
2022/11/30 00:55:45;;;;;;;69.10;25.50;;;7.40;99.90;;;;;;5031946;28;20090;-76
2022/11/30 00:58:12;;;;;;;67.60;26.15;;;7.50;99.90;;;;;;5015315;28;20038;-75
2022/11/30 01:00:38;;;;;;;69.28;25.92;;;7.50;99.90;;;;;;5031841;28;20049;-75
2022/11/30 01:03:04;;;;;;;71.15;26.10;;;7.40;99.90;;;;;;5030859;28;20107;-75
2022/11/30 01:05:32;;;;;;;68.80;24.92;;;7.40;99.90;;;;;;4998363;28;20049;-74
2022/11/30 01:08:03;;;;;;;72.47;25.70;;;7.40;99.90;;;;;;5022214;28;20071;-75
2022/11/30 01:10:29;;;;;;;72.13;25.85;;;7.40;99.90;;;;;;5051581;28;20088;-74
2022/11/30 01:12:54;;;;;;;73.68;27.00;;;7.40;99.90;;;;;;5034869;28;20041;-75
2022/11/30 01:15:21;;;;;;;69.65;25.50;;;7.40;99.90;;;;;;5018387;28;20044;-74
2022/11/30 01:17:47;;;;;;;67.75;25.15;;;7.40;99.90;;;;;;5034500;28;20072;-75
2022/11/30 01:20:13;;;;;;;73.47;25.50;;;7.40;99.90;;;;;;5051129;28;20475;-74
2022/11/30 01:22:39;;;;;;;71.88;25.83;;;7.40;99.90;;;;;;5051389;28;20087;-74
2022/11/30 01:25:05;;;;;;;74.13;26.13;;;7.40;99.90;;;;;;5034524;28;20546;-74
2022/11/30 01:27:31;;;;;;;68.43;25.85;;;7.40;99.90;;;;;;5018199;28;20057;-73
2022/11/30 01:29:56;;;;;;;68.72;26.15;;;7.40;99.90;;;;;;5050705;28;20098;-74
2022/11/30 01:32:22;;;;;;;67.78;25.55;;;7.40;99.90;;;;;;5034492;28;20437;-73
2022/11/30 01:34:48;;;;;;;75.95;26.45;;;7.30;99.90;;;;;;5018055;28;20505;-75
2022/11/30 01:37:14;;;;;;;72.18;25.50;;;7.30;99.90;;;;;;5034170;28;20037;-73
2022/11/30 01:39:40;;;;;;;70.75;25.17;;;6.50;99.90;;;;;;5034371;28;20045;-75
2022/11/30 01:42:13;;;;;;;69.68;25.08;;;7.40;99.90;;;;;;5017088;28;20041;-75
2022/11/30 01:44:51;;;;;;;69.25;25.73;;;7.40;99.90;;;;;;5050708;28;20143;-74
2022/11/30 01:47:30;;;;;;;70.93;26.20;;;7.40;99.90;;;;;;5050643;28;20080;-74
2022/11/30 01:50:08;;;;;;;70.57;25.70;;;7.40;99.90;;;;;;5050981;28;20069;-74
2022/11/30 01:52:42;;;;;;;69.43;25.25;;;7.30;99.90;;;;;;5033405;28;20364;-74
2022/11/30 01:55:27;;;;;;;65.68;25.00;;;7.30;99.90;;;;;;5050571;28;20127;-74
2022/11/30 01:57:58;;;;;;;71.20;25.10;;;7.30;99.90;;;;;;5034032;28;20363;-75
2022/11/30 02:00:24;;;;;;;75.00;25.58;;;7.30;99.90;;;;;;5050386;28;20078;-74
2022/11/30 02:03:03;;;;;;;71.38;25.75;;;7.40;99.90;;;;;;5033900;28;20091;-74
2022/11/30 02:05:30;;;;;;;67.38;24.55;;;7.40;99.90;;;;;;5033467;28;20486;-75
2022/11/30 02:07:56;;;;;;;65.15;24.95;;;7.40;99.90;;;;;;5043164;28;20041;-77
2022/11/30 02:10:34;;;;;;;70.65;24.85;;;7.30;99.90;;;;;;5013947;28;20113;-75
2022/11/30 02:13:20;;;;;;;77.88;27.05;;;7.30;99.90;;;;;;5013920;28;20046;-75
2022/11/30 02:16:04;;;;;;;66.75;24.00;;;7.30;99.90;;;;;;5013789;28;20494;-74
2022/11/30 02:18:59;;;;;;;67.20;25.05;;;7.30;99.90;;;;;;5029868;28;20045;-75
2022/11/30 02:21:51;;;;;;;64.57;23.73;;;7.30;99.90;;;;;;5013752;28;20045;-74
2022/11/30 02:24:32;;;;;;;67.90;25.63;;;7.30;99.90;;;;;;5030184;28;20049;-75
2022/11/30 02:27:49;;;;;;;64.03;23.92;;;7.30;99.90;;;;;;5013751;28;20095;-76
2022/11/30 02:30:18;;;;;;;64.88;23.95;;;7.30;99.90;;;;;;4972062;28;20144;-76
2022/11/30 02:32:53;;;;;;;69.85;23.52;;;7.30;99.90;;;;;;5013460;28;20045;-76
2022/11/30 02:35:23;;;;;;;69.20;24.23;;;7.30;99.90;;;;;;5013637;28;20045;-76
2022/11/30 02:37:50;;;;;;;68.47;24.30;;;7.30;99.90;;;;;;5030010;28;20441;-76
2022/11/30 02:40:18;;;;;;;65.70;24.83;;;7.30;99.90;;;;;;5029864;28;20045;-76
2022/11/30 02:42:45;;;;;;;66.47;24.85;;;7.30;99.90;;;;;;4997028;28;20046;-75
2022/11/30 02:45:11;;;;;;;64.03;24.45;;;7.20;99.90;;;;;;5012741;28;20072;-75
2022/11/30 02:47:37;;;;;;;70.15;25.15;;;7.20;99.90;;;;;;4981296;28;20451;-75
2022/11/30 02:50:09;;;;;;;66.07;23.42;;;7.20;99.90;;;;;;5013454;28;20117;-75
2022/11/30 02:52:35;;;;;;;68.40;23.77;;;7.20;99.90;;;;;;5013006;28;20075;-76
2022/11/30 02:55:07;;;;;;;62.90;24.67;;;7.20;99.90;;;;;;5029895;28;20045;-76
2022/11/30 02:57:34;;;;;;;66.40;23.60;;;7.20;99.90;;;;;;5029574;28;20143;-75
2022/11/30 03:00:03;;;;;;;62.20;23.65;;;7.20;99.90;;;;;;4997129;28;20045;-75
2022/11/30 03:02:28;;;;;;;61.63;24.10;;;7.20;99.90;;;;;;5029699;28;20103;-75
2022/11/30 03:04:54;;;;;;;63.42;22.92;;;7.20;99.90;;;;;;4996593;28;20053;-76
2022/11/30 03:07:20;;;;;;;74.93;24.58;;;7.40;99.90;;;;;;5031693;28;20483;-75
2022/11/30 03:09:46;;;;;;;65.30;23.65;;;7.20;99.90;;;;;;5033016;28;20045;-76
2022/11/30 03:12:12;;;;;;;70.53;24.63;;;7.20;99.90;;;;;;5033097;28;20402;-76
2022/11/30 03:14:38;;;;;;;70.75;24.25;;;7.30;99.90;;;;;;5049232;28;20040;-76
2022/11/30 03:17:05;;;;;;;67.78;23.45;;;7.20;99.90;;;;;;5048680;28;20076;-76
2022/11/30 03:19:32;;;;;;;66.63;24.52;;;7.30;99.90;;;;;;5049307;28;20119;-75
2022/11/30 03:21:58;;;;;;;70.20;24.95;;;7.20;99.90;;;;;;5032728;28;20052;-75
2022/11/30 03:24:24;;;;;;;67.65;24.00;;;7.30;99.90;;;;;;5049221;28;20049;-74
2022/11/30 03:26:50;;;;;;;65.28;23.95;;;7.20;99.90;;;;;;5020044;28;20144;-75
2022/11/30 03:29:16;;;;;;;64.07;24.23;;;7.30;99.90;;;;;;5053821;28;20497;-73
2022/11/30 03:31:42;;;;;;;65.15;23.70;;;7.30;99.90;;;;;;5020470;28;20364;-74
2022/11/30 03:34:07;;;;;;;63.47;23.88;;;7.30;99.90;;;;;;5053083;28;20048;-75
2022/11/30 03:36:34;;;;;;;63.20;23.63;;;7.30;99.90;;;;;;5053043;28;20471;-75
2022/11/30 03:39:00;;;;;;;63.15;24.00;;;7.20;99.90;;;;;;5036691;28;20128;-74
2022/11/30 03:41:26;;;;;;;73.30;24.48;;;7.30;99.90;;;;;;5036141;28;20444;-74
2022/11/30 03:43:52;;;;;;;69.45;23.92;;;7.20;99.90;;;;;;5036645;28;20047;-74
2022/11/30 03:46:18;;;;;;;68.97;24.70;;;7.20;99.90;;;;;;5052473;28;20049;-77
2022/11/30 03:48:44;;;;;;;72.38;24.45;;;7.30;99.90;;;;;;5036609;28;20136;-75
2022/11/30 03:51:11;;;;;;;65.63;25.30;;;7.20;99.90;;;;;;5019686;28;20504;-74
2022/11/30 03:53:37;;;;;;;73.57;25.00;;;7.20;99.90;;;;;;5019431;28;20037;-75
2022/11/30 03:56:06;;;;;;;66.88;24.23;;;7.30;99.90;;;;;;5036346;28;20036;-73
2022/11/30 03:58:32;;;;;;;74.82;24.45;;;7.20;99.90;;;;;;5036082;28;20048;-76
2022/11/30 04:01:08;;;;;;;69.93;26.10;;;7.20;99.90;;;;;;5036247;28;20037;-74
2022/11/30 04:03:35;;;;;;;77.50;26.02;;;7.30;99.90;;;;;;5036061;28;20060;-74
2022/11/30 04:06:02;;;;;;;75.47;25.95;;;7.20;99.90;;;;;;5035838;28;20040;-75
2022/11/30 04:08:29;;;;;;;68.30;24.90;;;7.20;99.90;;;;;;5024209;28;20053;-75
2022/11/30 04:10:56;;;;;;;68.75;24.70;;;7.20;99.90;;;;;;5016056;28;20368;-76
2022/11/30 04:13:23;;;;;;;72.55;24.75;;;7.20;99.90;;;;;;5015962;28;20037;-75
2022/11/30 04:15:51;;;;;;;65.18;24.00;;;7.30;99.90;;;;;;5016018;28;20128;-75
2022/11/30 04:18:18;;;;;;;64.57;22.90;;;7.20;99.90;;;;;;5015820;28;20383;-75
2022/11/30 04:20:44;;;;;;;65.65;23.30;;;7.20;99.90;;;;;;5032474;28;20049;-74
2022/11/30 04:23:11;;;;;;;64.72;23.10;;;7.20;99.90;;;;;;5016108;28;20044;-75
2022/11/30 04:25:38;;;;;;;66.05;23.13;;;7.20;99.90;;;;;;5015872;28;20138;-73
2022/11/30 04:28:04;;;;;;;62.83;22.48;;;7.20;99.90;;;;;;5016045;28;20050;-72
2022/11/30 04:30:32;;;;;;;61.78;22.58;;;7.20;99.90;;;;;;5015109;28;20495;-74
2022/11/30 04:32:58;;;;;;;61.38;23.25;;;7.20;99.90;;;;;;5015842;28;20045;-75
2022/11/30 04:35:24;;;;;;;59.97;22.80;;;7.20;99.90;;;;;;4999496;28;20051;-75
2022/11/30 04:37:50;;;;;;;57.45;22.20;;;7.20;99.90;;;;;;5031606;28;20041;-78
2022/11/30 04:40:16;;;;;;;55.08;21.58;;;7.10;99.90;;;;;;4999694;28;20080;-78
2022/11/30 04:42:42;;;;;;;54.92;21.98;;;7.20;99.90;;;;;;5015469;28;20050;-77
2022/11/30 04:45:08;;;;;;;49.25;21.02;;;7.20;99.90;;;;;;4999031;28;20056;-77
2022/11/30 04:47:34;;;;;;;58.45;21.70;;;7.20;99.90;;;;;;5031404;28;20037;-76
2022/11/30 04:50:00;;;;;;;52.20;21.52;;;7.20;99.90;;;;;;5015863;28;20148;-79
2022/11/30 04:52:26;;;;;;;52.05;21.15;;;7.10;99.90;;;;;;5032704;28;20041;-79
2022/11/30 04:54:52;;;;;;;57.25;22.33;;;7.10;99.90;;;;;;5016678;28;20053;-78
2022/11/30 04:57:18;;;;;;;54.28;21.67;;;7.20;99.90;;;;;;5017128;28;20049;-78
2022/11/30 04:59:44;;;;;;;51.42;21.15;;;7.10;99.90;;;;;;5032774;28;20120;-78
2022/11/30 05:02:10;;;;;;;50.42;20.77;;;7.10;99.90;;;;;;5016404;28;20041;-78
2022/11/30 05:04:36;;;;;;;51.50;21.48;;;7.10;99.90;;;;;;5015789;28;20033;-78
2022/11/30 05:07:02;;;;;;;47.72;19.20;;;7.10;99.90;;;;;;5000089;28;20115;-78
2022/11/30 05:09:28;;;;;;;54.40;20.50;;;7.10;99.90;;;;;;5035064;28;20067;-78
2022/11/30 05:11:56;;;;;;;47.53;20.20;;;7.10;99.90;;;;;;5035722;28;20103;-78
2022/11/30 05:14:22;;;;;;;51.88;20.60;;;7.10;99.90;;;;;;5053834;28;20036;-78
2022/11/30 05:16:49;;;;;;;43.70;20.05;;;7.10;99.90;;;;;;5018520;28;20057;-79
2022/11/30 05:19:14;;;;;;;48.88;20.05;;;7.10;99.90;;;;;;5036055;28;20478;-79
2022/11/30 05:21:41;;;;;;;48.05;20.08;;;7.20;99.90;;;;;;5036615;28;20043;-78
2022/11/30 05:24:07;;;;;;;48.85;20.48;;;7.10;99.90;;;;;;5036563;28;20044;-80
2022/11/30 05:26:34;;;;;;;47.70;20.70;;;7.10;99.90;;;;;;5052812;28;20044;-79
2022/11/30 05:29:02;;;;;;;43.47;19.38;;;7.10;99.90;;;;;;5037279;28;20173;-78
2022/11/30 05:31:28;;;;;;;47.03;19.65;;;7.00;99.90;;;;;;5052041;28;20052;-77
2022/11/30 05:33:54;;;;;;;42.25;19.63;;;7.00;99.90;;;;;;5035177;28;20037;-78
2022/11/30 05:36:20;;;;;;;42.88;19.48;;;7.10;99.90;;;;;;5051816;28;20056;-78
2022/11/30 05:38:46;;;;;;;42.70;20.17;;;7.00;99.90;;;;;;5035351;28;20052;-78
2022/11/30 05:41:12;;;;;;;40.63;18.95;;;7.00;99.90;;;;;;5036573;28;20124;-77
2022/11/30 05:43:38;;;;;;;44.92;18.85;;;7.00;99.90;;;;;;5036968;28;20490;-78
2022/11/30 05:46:06;;;;;;;41.13;18.92;;;7.00;99.90;;;;;;5053688;28;20111;-77
2022/11/30 05:48:32;;;;;;;39.42;18.05;;;7.00;99.90;;;;;;5037038;28;20045;-78
2022/11/30 05:51:11;;;;;;;33.38;16.67;;;7.00;99.90;;;;;;5053645;28;20478;-77
2022/11/30 05:53:37;;;;;;;31.48;16.52;;;7.00;99.90;;;;;;5053625;28;20060;-78
2022/11/30 05:56:12;;;;;;;35.55;17.58;;;7.00;99.90;;;;;;5053980;28;20040;-78
2022/11/30 05:58:38;;;;;;;34.17;17.05;;;7.00;99.90;;;;;;5053913;28;20041;-78
2022/11/30 06:01:05;;;;;;;33.67;16.90;;;7.00;99.90;;;;;;5053688;28;20047;-78
2022/11/30 06:03:33;;;;;;;33.47;17.27;;;7.00;99.90;;;;;;5037487;28;20111;-78
2022/11/30 06:05:59;;;;;;;32.70;16.60;;;7.00;99.90;;;;;;5053873;28;20041;-78
2022/11/30 06:08:26;;;;;;;33.38;16.80;;;7.00;99.90;;;;;;5020955;28;20080;-78
2022/11/30 06:10:52;;;;;;;30.48;16.00;;;6.90;99.90;;;;;;5036616;28;20391;-78
2022/11/30 06:13:19;;;;;;;31.75;16.63;;;6.90;99.90;;;;;;5053724;28;20383;-79
2022/11/30 06:15:45;;;;;;;30.08;16.60;;;6.90;99.90;;;;;;5036952;28;20041;-78
2022/11/30 06:18:12;;;;;;;32.22;16.92;;;6.90;99.90;;;;;;5053797;28;20047;-78
2022/11/30 06:20:38;;;;;;;34.30;16.77;;;6.90;99.90;;;;;;5036949;28;20044;-78
2022/11/30 06:23:04;;;;;;;36.55;17.52;;;7.00;99.90;;;;;;5036864;28;20048;-78
2022/11/30 06:25:30;;;;;;;34.55;17.38;;;6.90;99.90;;;;;;5053781;28;20051;-78
2022/11/30 06:27:56;;;;;;;34.70;17.48;;;6.90;99.90;;;;;;5053289;28;20040;-78
2022/11/30 06:30:22;;;;;;;34.47;17.70;;;7.00;99.90;;;;;;5020532;28;20041;-79
2022/11/30 06:32:50;;;;;;;35.25;18.27;;;6.90;99.90;;;;;;5036344;28;20051;-78
2022/11/30 06:35:17;;;;;;;33.13;17.80;;;6.90;99.90;;;;;;5053274;28;20095;-78
2022/11/30 06:37:43;;;;;;;36.63;18.73;;;7.00;99.90;;;;;;5053011;28;20041;-78
2022/11/30 06:40:10;;;;;;;38.03;18.70;;;7.00;99.90;;;;;;5036735;28;20041;-78
2022/11/30 06:42:37;;;;;;;37.60;18.45;;;6.90;99.90;;;;;;5053178;28;20510;-78
2022/11/30 06:45:05;;;;;;;36.30;18.52;;;7.00;99.90;;;;;;5036124;28;20089;-78
2022/11/30 06:47:31;;;;;;;35.00;18.77;;;7.00;99.90;;;;;;5036589;28;20135;-79
2022/11/30 06:49:57;;;;;;;36.17;17.70;;;7.00;99.90;;;;;;5036354;28;20045;-78
2022/11/30 06:52:23;;;;;;;33.72;17.70;;;6.90;99.90;;;;;;5052888;28;20049;-79
2022/11/30 06:54:50;;;;;;;37.72;19.17;;;6.90;99.90;;;;;;5035828;28;20041;-78
2022/11/30 06:57:16;;;;;;;40.50;19.10;;;6.90;99.90;;;;;;5035900;28;20383;-79
2022/11/30 06:59:42;;;;;;;38.20;18.60;;;6.90;99.90;;;;;;5035506;28;20528;-78
2022/11/30 07:02:11;;;;;;;34.03;18.05;;;6.90;99.90;;;;;;5035572;28;20431;-78
2022/11/30 07:04:36;;;;;;;33.25;17.40;;;6.90;99.90;;;;;;5036255;28;20045;-78
2022/11/30 07:07:02;;;;;;;35.90;18.17;;;6.90;99.90;;;;;;5052570;28;20055;-79
2022/11/30 07:09:28;;;;;;;35.58;17.73;;;6.90;99.90;;;;;;5036375;28;20040;-78
2022/11/30 07:11:54;;;;;;;33.10;18.17;;;6.90;99.90;;;;;;5052256;28;20382;-78
2022/11/30 07:14:20;;;;;;;30.38;17.52;;;6.90;99.90;;;;;;5052325;28;20044;-78
2022/11/30 07:16:46;;;;;;;32.90;17.60;;;6.90;99.90;;;;;;5036168;28;20047;-78
2022/11/30 07:19:11;;;;;;;33.20;17.88;;;6.90;99.90;;;;;;5036142;28;20142;-79
2022/11/30 07:21:37;;;;;;;30.75;17.38;;;6.90;99.90;;;;;;5036241;28;20084;-78
2022/11/30 07:26:47;;;;;;;34.40;17.10;;;6.90;99.90;;;;;;5038162;28;20383;-78
2022/11/30 07:29:13;;;;;;;32.97;18.13;;;6.90;99.90;;;;;;5019112;28;20123;-78
2022/11/30 07:31:39;;;;;;;32.40;17.52;;;6.90;99.90;;;;;;5035245;28;20076;-78
2022/11/30 07:34:08;;;;;;;34.33;17.77;;;6.90;99.90;;;;;;5053279;28;20037;-78
2022/11/30 07:36:35;;;;;;;33.92;17.67;;;6.90;99.90;;;;;;5035909;28;20076;-78
2022/11/30 07:39:02;;;;;;;35.17;17.15;;;6.90;99.90;;;;;;5036465;28;20041;-77
2022/11/30 07:41:28;;;;;;;33.42;18.23;;;6.90;99.90;;;;;;5019686;28;20037;-77
2022/11/30 07:43:54;;;;;;;35.03;17.90;;;6.90;99.90;;;;;;5018800;28;20099;-78
2022/11/30 07:46:23;;;;;;;36.65;18.25;;;6.20;99.90;;;;;;5051447;28;20110;-78
2022/11/30 07:48:49;;;;;;;37.08;17.98;;;6.90;99.90;;;;;;5035123;28;20049;-78
2022/11/30 07:51:18;;;;;;;37.13;18.73;;;6.90;99.90;;;;;;5035068;28;20127;-78
2022/11/30 07:53:44;;;;;;;36.15;18.42;;;6.90;99.90;;;;;;5035133;28;20112;-77
2022/11/30 07:56:13;;;;;;;35.25;18.42;;;6.90;99.90;;;;;;5034771;28;20045;-77
2022/11/30 07:58:40;;;;;;;35.50;19.13;;;6.90;99.90;;;;;;5051589;28;20124;-78
2022/11/30 08:01:32;;;;;;;35.55;18.65;;;6.90;99.90;;;;;;5051051;28;20442;-78
2022/11/30 08:03:59;;;;;;;37.47;18.70;;;7.00;99.90;;;;;;5030683;28;20475;-78
2022/11/30 08:06:27;;;;;;;35.67;18.00;;;6.90;99.90;;;;;;5035930;28;20087;-77
2022/11/30 08:08:55;;;;;;;37.22;18.75;;;6.90;99.90;;;;;;5035483;28;20067;-77
2022/11/30 08:11:24;;;;;;;34.80;18.23;;;6.90;99.90;;;;;;5035641;28;20131;-78
2022/11/30 08:13:51;;;;;;;30.58;16.90;;;6.90;99.90;;;;;;5055377;28;20041;-78
2022/11/30 08:16:20;;;;;;;34.97;18.05;;;7.00;99.90;;;;;;5056090;28;20045;-78
2022/11/30 08:18:49;;;;;;;35.22;17.70;;;6.90;99.90;;;;;;5039681;28;20139;-78
2022/11/30 08:21:18;;;;;;;35.88;18.50;;;6.90;99.90;;;;;;5038931;28;20040;-77
2022/11/30 08:23:50;;;;;;;40.22;18.77;;;7.00;99.90;;;;;;5055527;28;20467;-77
2022/11/30 08:26:17;;;;;;;33.00;17.15;;;7.00;99.90;;;;;;5055237;28;20041;-78
2022/11/30 08:28:44;;;;;;;40.65;18.80;;;7.00;99.90;;;;;;5039026;28;20037;-77
2022/11/30 08:31:16;;;;;;;40.53;18.50;;;7.00;99.90;;;;;;5055356;28;20582;-78
2022/11/30 08:33:42;;;;;;;35.15;17.90;;;6.90;99.90;;;;;;5038745;28;20036;-78
2022/11/30 08:36:15;;;;;;;37.67;17.73;;;7.00;99.90;;;;;;5054895;28;20047;-79
2022/11/30 08:38:43;;;;;;;39.90;19.60;;;7.00;99.90;;;;;;5038641;28;20075;-78
2022/11/30 08:41:11;;;;;;;38.75;18.20;;;7.00;99.90;;;;;;5055211;28;20128;-78
2022/11/30 08:43:37;;;;;;;37.33;19.40;;;7.00;99.90;;;;;;5038723;28;20529;-78
2022/11/30 08:46:06;;;;;;;37.28;17.85;;;7.00;99.90;;;;;;5054777;28;20052;-78
2022/11/30 08:48:33;;;;;;;35.63;18.15;;;7.00;99.90;;;;;;5038475;28;20052;-78
2022/11/30 08:51:04;;;;;;;38.83;18.80;;;7.00;99.90;;;;;;5038462;28;20044;-79
2022/11/30 08:53:30;;;;;;;38.50;18.52;;;7.00;99.90;;;;;;5038037;28;20484;-79
2022/11/30 08:56:02;;;;;;;37.67;18.10;;;7.00;99.90;;;;;;5038582;28;20043;-77
2022/11/30 08:58:32;;;;;;;;;;;7.00;99.90;;;;;;5038793;28;20114;-78
2022/11/30 09:01:19;;;;;;;36.20;17.60;;;7.00;99.90;;;;;;5054984;28;19916;-78
2022/11/30 09:03:46;;;;;;;36.75;17.77;;;7.00;99.90;;;;;;5038371;28;20045;-78
2022/11/30 09:06:15;;;;;;;38.15;19.25;;;7.10;99.90;;;;;;5021465;28;20081;-78
2022/11/30 09:08:43;;;;;;;42.00;20.85;;;7.10;99.90;;;;;;5053779;28;20501;-79
2022/11/30 09:11:15;;;;;;;43.00;19.95;;;7.10;99.90;;;;;;5036542;28;20048;-78
2022/11/30 09:13:42;;;;;;;44.10;20.75;;;7.20;99.90;;;;;;5037830;28;20098;-78
2022/11/30 09:16:09;;;;;;;48.80;21.10;;;7.30;99.90;;;;;;5021061;28;20128;-77
2022/11/30 09:18:35;;;;;;;46.20;20.23;;;7.30;99.90;;;;;;5037730;28;20053;-78
2022/11/30 09:21:06;;;;;;;47.70;20.67;;;7.30;99.90;;;;;;5037745;28;20048;-78
2022/11/30 09:23:32;;;;;;;47.17;20.02;;;7.30;99.90;;;;;;5037466;28;20052;-78
2022/11/30 09:26:00;;;;;;;50.80;20.80;;;7.30;99.90;;;;;;5037870;28;20041;-78
2022/11/30 09:28:29;;;;;;;48.08;21.17;;;7.30;99.90;;;;;;5037250;28;20064;-78
2022/11/30 09:31:03;;;;;;;48.78;22.15;;;7.30;99.90;;;;;;5037737;28;20041;-78
2022/11/30 09:33:29;;;;;;;52.95;22.10;;;7.30;99.90;;;;;;5053760;28;20041;-78
2022/11/30 09:35:57;;;;;;;57.70;22.48;;;7.30;99.90;;;;;;5037538;28;20045;-78
2022/11/30 09:38:23;;;;;;;51.85;22.60;;;7.30;99.90;;;;;;5021220;28;20150;-78
2022/11/30 09:40:55;;;;;;;56.00;21.95;;;7.30;99.90;;;;;;5037909;28;20037;-78
2022/11/30 09:43:39;;;;;;;55.25;23.20;;;7.40;99.90;;;;;;5037516;28;20094;-78
2022/11/30 09:46:08;;;;;;;55.58;22.42;;;7.40;99.90;;;;;;5038060;28;20055;-78
2022/11/30 09:49:04;;;;;;;51.38;21.77;;;7.40;99.90;;;;;;5037216;28;20036;-78
2022/11/30 09:51:53;;;;;;;57.10;22.65;;;7.40;99.90;;;;;;5039136;28;20091;-78
2022/11/30 09:54:34;;;;;;;53.15;21.75;;;7.40;99.90;;;;;;5053547;28;20051;-78
2022/11/30 09:57:17;;;;;;;50.67;22.05;;;7.40;99.90;;;;;;5053967;28;20489;-78
2022/11/30 09:59:52;;;;;;;55.42;22.75;;;7.40;99.90;;;;;;5037489;28;20136;-77
2022/11/30 10:02:18;;;;;;;59.40;22.23;;;7.40;99.90;;;;;;5037409;28;20080;-77
2022/11/30 10:04:44;;;;;;;53.58;22.75;;;7.40;99.90;;;;;;5037407;28;20537;-78
2022/11/30 10:07:33;;;;;;;53.33;22.52;;;7.40;99.90;;;;;;5037327;28;20066;-77
2022/11/30 10:09:59;;;;;;;55.95;22.00;;;7.40;99.90;;;;;;5053708;28;20041;-77
2022/11/30 10:12:38;;;;;;;57.78;22.85;;;7.40;99.90;;;;;;5036924;28;20090;-77
2022/11/30 10:15:10;;;;;;;50.95;22.98;;;7.30;99.90;;;;;;5054037;28;20044;-78
2022/11/30 10:17:40;;;;;;;60.10;24.83;;;7.30;99.90;;;;;;5053481;28;20084;-77
2022/11/30 10:20:24;;;;;;;64.32;23.95;;;7.30;99.90;;;;;;5037218;28;20041;-78
2022/11/30 10:22:57;;;;;;;56.65;23.73;;;7.30;99.90;;;;;;5053550;28;20057;-78
2022/11/30 10:25:41;;;;;;;59.28;23.65;;;7.30;99.90;;;;;;5036665;28;20052;-77
2022/11/30 10:28:17;;;;;;;59.40;24.73;;;7.40;99.90;;;;;;5036548;28;20048;-78
2022/11/30 10:30:45;;;;;;;65.70;24.77;;;7.40;99.90;;;;;;5053223;28;20036;-78
2022/11/30 10:33:26;;;;;;;70.38;26.55;;;7.40;99.90;;;;;;5053945;28;20067;-78
2022/11/30 10:35:55;;;;;;;69.35;26.20;;;7.40;99.90;;;;;;5035733;28;20060;-78
2022/11/30 10:38:24;;;;;;;65.45;25.55;;;7.20;99.90;;;;;;5036109;28;20108;-78
2022/11/30 10:41:13;;;;;;;70.63;27.27;;;7.40;99.90;;;;;;5036448;28;20044;-78
2022/11/30 10:43:45;;;;;;;72.90;27.65;;;7.50;99.90;;;;;;5022969;28;20045;-78
2022/11/30 10:46:17;;;;;;;;;;;7.50;99.90;;;;;;5036019;28;20479;-78
2022/11/30 10:48:52;;;;;;;79.20;27.55;;;7.70;99.90;;;;;;5035787;28;19924;-79
2022/11/30 10:51:19;;;;;;;77.30;27.88;;;7.60;99.90;;;;;;5050084;28;20051;-80
2022/11/30 10:53:45;;;;;;;76.97;28.85;;;7.60;99.90;;;;;;5019492;28;20033;-78
2022/11/30 10:56:13;;;;;;;73.30;27.88;;;7.60;99.90;;;;;;5052300;28;20447;-77
2022/11/30 10:59:01;;;;;;;76.38;27.00;;;7.60;99.90;;;;;;5052476;28;20124;-78
2022/11/30 11:01:39;;;;;;;71.53;27.95;;;7.50;99.90;;;;;;5052453;28;20037;-78
2022/11/30 11:04:16;;;;;;;69.05;27.13;;;7.50;99.90;;;;;;5052833;28;20124;-79
2022/11/30 11:07:02;;;;;;;72.80;26.85;;;7.50;99.90;;;;;;5052010;28;20045;-78
2022/11/30 11:09:45;;;;;;;67.43;27.05;;;7.50;99.90;;;;;;5052416;28;20060;-78
2022/11/30 11:12:29;;;;;;;66.45;28.52;;;7.50;99.90;;;;;;5052706;28;20052;-79
2022/11/30 11:15:19;;;;;;;68.72;26.75;;;7.50;99.90;;;;;;5035708;28;20386;-77
2022/11/30 11:17:45;;;;;;;65.63;26.30;;;7.40;99.90;;;;;;5035745;28;20048;-77
2022/11/30 11:20:32;;;;;;;72.57;27.80;;;7.40;99.90;;;;;;5052605;28;20053;-77
2022/11/30 11:22:58;;;;;;;73.85;28.23;;;7.40;99.90;;;;;;5035722;28;20305;-77
2022/11/30 11:25:31;;;;;;;77.25;28.85;;;7.40;99.90;;;;;;5035560;28;20053;-78
2022/11/30 11:28:12;;;;;;;76.40;28.70;;;7.30;99.90;;;;;;5035846;28;20126;-78
2022/11/30 11:30:38;;;;;;;74.68;28.38;;;7.30;99.90;;;;;;5035934;28;20067;-77
2022/11/30 11:33:10;;;;;;;73.47;29.40;;;7.30;99.90;;;;;;5035843;28;20139;-77
2022/11/30 11:35:40;;;;;;;80.38;29.67;;;7.30;99.90;;;;;;5052344;28;20169;-77
2022/11/30 11:38:26;;;;;;;79.68;29.63;;;7.30;99.90;;;;;;5036041;28;20135;-78
2022/11/30 11:40:55;;;;;;;86.95;30.50;;;7.30;99.90;;;;;;5036209;28;20037;-78
2022/11/30 11:43:24;;;;;;;83.43;29.60;;;7.30;99.90;;;;;;5052588;28;20049;-78
2022/11/30 11:45:54;;;;;;;80.20;30.98;;;7.30;99.90;;;;;;5052270;28;20052;-78
2022/11/30 11:48:35;;;;;;;87.32;31.63;;;7.30;99.90;;;;;;5039847;28;20051;-78
2022/11/30 11:51:04;;;;;;;88.22;31.80;;;7.30;99.90;;;;;;5039693;28;20045;-77
2022/11/30 11:53:54;;;;;;;86.35;32.35;;;7.30;99.90;;;;;;5037349;28;20045;-77
2022/11/30 11:56:30;;;;;;;84.28;32.67;;;7.30;99.90;;;;;;5038891;28;20124;-78
2022/11/30 11:59:16;;;;;;;90.07;31.23;;;7.40;99.90;;;;;;5058736;28;20043;-77
2022/11/30 12:01:51;;;;;;;95.82;33.03;;;7.30;99.90;;;;;;5050562;28;20523;-77
2022/11/30 12:04:22;;;;;;;102.43;33.92;;;7.30;99.90;;;;;;5022980;28;20073;-77
2022/11/30 12:06:50;;;;;;;;;;;7.30;99.90;;;;;;5036126;28;20053;-77
2022/11/30 12:09:26;;;;;;;103.18;32.78;;;7.30;99.90;;;;;;5035760;28;20051;-77
2022/11/30 12:11:52;;;;;;;102.22;33.55;;;7.30;99.90;;;;;;5018933;28;20132;-77
2022/11/30 12:14:18;;;;;;;109.90;34.47;;;7.40;99.90;;;;;;5018934;28;20045;-77
2022/11/30 12:16:53;;;;;;;102.13;34.95;;;7.30;99.90;;;;;;5019231;28;20037;-77
2022/11/30 12:19:23;;;;;;;106.28;36.08;;;7.30;99.90;;;;;;5019262;28;20052;-77
2022/11/30 12:22:01;;;;;;;106.45;36.63;;;7.30;99.90;;;;;;5035141;28;20053;-77
2022/11/30 12:24:37;;;;;;;99.78;34.78;;;7.30;99.90;;;;;;5019089;28;20044;-78
2022/11/30 12:27:19;;;;;;;108.13;36.00;;;7.30;99.90;;;;;;5018917;28;20049;-78
2022/11/30 12:29:54;;;;;;;98.35;33.35;;;7.40;99.90;;;;;;5035628;28;20042;-78
2022/11/30 12:32:45;;;;;;;97.32;32.60;;;7.40;99.90;;;;;;5035671;28;20059;-78
2022/11/30 12:35:29;;;;;;;85.47;29.98;;;7.40;99.90;;;;;;5036502;28;20064;-78
2022/11/30 12:37:58;;;;;;;85.78;30.77;;;7.40;99.90;;;;;;5055280;28;20099;-78
2022/11/30 12:40:42;;;;;;;87.82;32.22;;;7.40;99.90;;;;;;5038779;28;20504;-78
2022/11/30 12:43:33;;;;;;;92.03;31.65;;;8.20;99.90;;;;;;5038527;28;20037;-77
2022/11/30 12:46:13;;;;;;;90.63;32.15;;;7.40;99.90;;;;;;5038330;28;20154;-77
2022/11/30 12:49:05;;;;;;;94.03;33.38;;;7.40;99.90;;;;;;5055035;28;20067;-77
2022/11/30 12:51:52;;;;;;;94.88;32.60;;;7.40;99.90;;;;;;5054878;28;20033;-77
2022/11/30 12:54:41;;;;;;;103.55;34.22;;;7.30;99.90;;;;;;5037846;28;20086;-78
2022/11/30 12:57:35;;;;;;;94.55;34.20;;;7.40;99.90;;;;;;5054526;28;20041;-78